createdAt,value
2023-01-26T00:01:10.095Z,60.84
2023-01-26T00:03:55.705Z,60.98
2023-01-26T00:06:41.225Z,60.86
2023-01-26T00:09:26.502Z,60.84
2023-01-26T00:12:12.259Z,60.82
2023-01-26T00:14:57.893Z,60.93
2023-01-26T00:17:43.489Z,61.12
2023-01-26T00:20:29.335Z,61.28
2023-01-26T00:23:14.959Z,61.07
2023-01-26T00:26:01.111Z,61.24
2023-01-26T00:28:47.153Z,60.81
2023-01-26T00:31:33.948Z,60.86
2023-01-26T00:34:19.430Z,60.77
2023-01-26T00:37:05.101Z,60.45
2023-01-26T00:39:50.472Z,60.37
2023-01-26T00:42:36.299Z,61.14
2023-01-26T00:45:22.107Z,61.03
2023-01-26T00:48:07.605Z,61.07
2023-01-26T00:50:53.156Z,61.02
2023-01-26T00:53:38.634Z,60.93
2023-01-26T00:56:28.323Z,60.91
2023-01-26T00:59:19.534Z,60.94
2023-01-26T01:02:05.370Z,60.91
2023-01-26T01:04:51.621Z,61.05
2023-01-26T01:07:37.825Z,60.95
2023-01-26T01:10:24.838Z,61.14
2023-01-26T01:13:12.342Z,61.11
2023-01-26T01:15:59.268Z,61.01
2023-01-26T01:18:44.900Z,60.96
2023-01-26T01:21:32.068Z,60.75
2023-01-26T01:24:17.994Z,60.98
2023-01-26T01:27:03.766Z,61.33
2023-01-26T01:29:52.591Z,60.89
2023-01-26T01:32:39.945Z,61.16
2023-01-26T01:35:25.977Z,61.35
2023-01-26T01:38:11.365Z,60.73
2023-01-26T01:40:57.286Z,60.94
2023-01-26T01:43:43.065Z,61.07
2023-01-26T01:46:31.984Z,61.16
2023-01-26T01:49:21.137Z,60.69
2023-01-26T01:52:14.471Z,60.87
2023-01-26T01:55:07.415Z,61.05
2023-01-26T01:57:53.946Z,61.36
2023-01-26T02:00:40.312Z,60.96
2023-01-26T02:03:27.062Z,61.24
2023-01-26T02:06:13.546Z,60.76
2023-01-26T02:08:59.095Z,60.76
2023-01-26T02:11:48.838Z,60.80
2023-01-26T02:14:34.815Z,60.46
2023-01-26T02:17:28.453Z,60.56
2023-01-26T02:20:14.164Z,61.14
2023-01-26T02:22:59.912Z,60.54
2023-01-26T02:25:52.856Z,61.14
2023-01-26T02:28:39.090Z,61.30
2023-01-26T02:31:25.058Z,61.33
2023-01-26T02:34:11.742Z,61.06
2023-01-26T02:36:58.483Z,61.08
2023-01-26T02:40:03.822Z,61.01
2023-01-26T02:42:49.476Z,60.91
2023-01-26T02:45:35.141Z,60.73
2023-01-26T02:48:39.459Z,61.17
2023-01-26T02:51:25.296Z,60.91
2023-01-26T02:54:31.952Z,60.85
2023-01-26T02:57:18.632Z,60.33
2023-01-26T03:00:05.627Z,60.87
2023-01-26T03:02:51.655Z,60.80
2023-01-26T03:05:37.483Z,60.72
2023-01-26T03:08:23.242Z,60.89
2023-01-26T03:11:08.907Z,61.18
2023-01-26T03:13:54.384Z,60.79
2023-01-26T03:16:39.883Z,61.07
2023-01-26T03:19:58.970Z,61.11
2023-01-26T03:23:03.499Z,61.02
2023-01-26T03:26:07.907Z,61.28
2023-01-26T03:28:53.960Z,61.25
2023-01-26T03:31:40.480Z,61.26
2023-01-26T03:34:26.875Z,61.01
2023-01-26T03:37:12.629Z,60.83
2023-01-26T03:40:31.725Z,60.91
2023-01-26T03:43:37.733Z,61.50
2023-01-26T03:46:42.387Z,61.09
2023-01-26T03:49:49.230Z,61.26
2023-01-26T03:52:54.237Z,61.36
2023-01-26T03:55:58.926Z,61.18
2023-01-26T03:58:51.955Z,61.67
2023-01-26T04:01:40.891Z,61.67
2023-01-26T04:04:45.163Z,61.63
2023-01-26T04:07:49.465Z,61.69
2023-01-26T04:10:35.660Z,61.75
2023-01-26T04:13:41.888Z,61.57
2023-01-26T04:16:49.199Z,61.59
2023-01-26T04:19:54.134Z,61.70
2023-01-26T04:22:44.598Z,61.84
2023-01-26T04:25:31.753Z,61.77
2023-01-26T04:28:17.426Z,61.70
2023-01-26T04:31:04.858Z,61.48
2023-01-26T04:33:54.232Z,62.04
2023-01-26T04:36:40.188Z,62.14
2023-01-26T04:39:26.347Z,61.74
2023-01-26T04:42:15.702Z,61.77
2023-01-26T04:45:01.309Z,61.69
2023-01-26T04:47:47.782Z,61.96
2023-01-26T04:50:36.393Z,62.00
2023-01-26T04:53:22.170Z,62.39
2023-01-26T04:56:09.455Z,62.24
2023-01-26T04:58:55.478Z,62.67
2023-01-26T05:01:42.622Z,62.27
2023-01-26T05:04:29.337Z,62.71
2023-01-26T05:07:15.689Z,62.84
2023-01-26T05:10:02.949Z,62.51
2023-01-26T05:13:08.901Z,62.41
2023-01-26T05:16:14.497Z,62.71
2023-01-26T05:19:20.586Z,62.63
2023-01-26T05:22:36.456Z,62.29
2023-01-26T05:25:41.597Z,63.04
2023-01-26T05:28:29.850Z,62.49
2023-01-26T05:31:15.857Z,62.69
2023-01-26T05:34:02.104Z,62.65
2023-01-26T05:36:48.326Z,62.56
2023-01-26T05:39:33.961Z,62.78
2023-01-26T05:42:21.306Z,62.55
2023-01-26T05:45:20.827Z,62.71
2023-01-26T05:48:08.923Z,63.02
2023-01-26T05:50:55.603Z,62.45
2023-01-26T05:53:41.206Z,62.46
2023-01-26T05:56:27.465Z,62.29
2023-01-26T05:59:18.135Z,62.85
2023-01-26T06:02:05.115Z,62.61
2023-01-26T06:04:52.513Z,62.79
2023-01-26T06:07:38.386Z,62.54
2023-01-26T06:10:36.030Z,62.69
2023-01-26T06:13:33.617Z,62.66
2023-01-26T06:16:28.114Z,62.81
2023-01-26T06:19:16.030Z,62.86
2023-01-26T06:22:09.238Z,63.41
2023-01-26T06:24:56.629Z,63.25
2023-01-26T06:27:42.475Z,63.02
2023-01-26T06:30:43.739Z,63.15
2023-01-26T06:33:35.054Z,62.99
2023-01-26T06:36:21.064Z,63.01
2023-01-26T06:39:07.785Z,62.94
2023-01-26T06:41:53.961Z,63.17
2023-01-26T06:44:39.549Z,63.24
2023-01-26T06:47:26.511Z,63.22
2023-01-26T06:50:12.577Z,62.67
2023-01-26T06:53:01.489Z,63.17
2023-01-26T06:56:04.310Z,63.17
2023-01-26T06:58:53.566Z,62.76
2023-01-26T07:02:19.023Z,62.95
2023-01-26T07:05:05.048Z,62.95
2023-01-26T07:07:51.778Z,62.79
2023-01-26T07:10:37.981Z,63.05
2023-01-26T07:13:24.170Z,62.81
2023-01-26T07:16:11.338Z,63.43
2023-01-26T07:18:57.879Z,63.03
2023-01-26T07:21:43.927Z,62.97
2023-01-26T07:24:29.804Z,62.89
2023-01-26T07:27:16.323Z,63.07
2023-01-26T07:30:02.176Z,62.80
2023-01-26T07:32:47.735Z,62.26
2023-01-26T07:35:33.218Z,62.59
2023-01-26T07:38:19.280Z,62.65
2023-01-26T07:41:06.175Z,62.52
2023-01-26T07:43:52.254Z,62.27
2023-01-26T07:46:38.494Z,62.30
2023-01-26T07:49:25.247Z,62.45
2023-01-26T07:52:10.835Z,62.56
2023-01-26T07:54:56.604Z,62.32
2023-01-26T07:57:42.146Z,62.46
2023-01-26T08:00:27.862Z,62.57
2023-01-26T08:03:14.016Z,62.71
2023-01-26T08:06:00.724Z,62.60
2023-01-26T08:08:50.987Z,62.30
2023-01-26T08:11:36.746Z,62.77
2023-01-26T08:14:22.529Z,62.67
2023-01-26T08:17:08.044Z,62.46
2023-01-26T08:19:53.874Z,62.38
2023-01-26T08:22:39.310Z,62.06
2023-01-26T08:25:24.943Z,62.51
2023-01-26T08:28:10.497Z,62.68
2023-01-26T08:30:56.670Z,62.27
2023-01-26T08:33:44.057Z,62.36
2023-01-26T08:36:29.698Z,61.89
2023-01-26T08:39:15.077Z,62.19
2023-01-26T08:42:00.787Z,62.12
2023-01-26T08:44:46.480Z,62.36
2023-01-26T08:47:31.966Z,62.49
2023-01-26T08:50:17.680Z,62.34
2023-01-26T08:53:03.111Z,62.34
2023-01-26T08:55:48.758Z,62.05
2023-01-26T08:58:34.961Z,62.09
2023-01-26T09:01:20.386Z,62.27
2023-01-26T09:04:06.404Z,62.21
2023-01-26T09:06:51.967Z,62.01
2023-01-26T09:09:37.853Z,62.04
2023-01-26T09:12:23.644Z,62.23
2023-01-26T09:15:09.434Z,62.01
2023-01-26T09:17:55.469Z,62.13
2023-01-26T09:20:40.890Z,61.83
2023-01-26T09:23:28.784Z,61.98
2023-01-26T09:26:14.487Z,62.12
2023-01-26T09:29:39.008Z,61.88
2023-01-26T09:32:24.743Z,61.70
2023-01-26T09:35:14.151Z,61.79
2023-01-26T09:38:11.085Z,61.56
2023-01-26T09:41:15.316Z,61.56
2023-01-26T09:44:33.756Z,61.88
2023-01-26T09:47:22.141Z,61.72
2023-01-26T09:50:11.359Z,62.26
2023-01-26T09:53:06.373Z,62.02
2023-01-26T09:55:51.786Z,61.78
2023-01-26T09:58:40.786Z,61.89
2023-01-26T10:01:35.638Z,61.66
2023-01-26T10:04:33.899Z,61.76
2023-01-26T10:07:19.437Z,61.77
2023-01-26T10:10:09.673Z,61.79
2023-01-26T10:12:55.070Z,61.56
2023-01-26T10:15:43.364Z,61.17
2023-01-26T10:18:32.779Z,61.35
2023-01-26T10:21:18.993Z,61.56
2023-01-26T10:24:05.833Z,61.58
2023-01-26T10:26:53.189Z,61.64
2023-01-26T10:29:43.063Z,61.59
2023-01-26T10:32:28.767Z,61.42
2023-01-26T10:35:19.909Z,61.62
2023-01-26T10:38:26.041Z,61.81
2023-01-26T10:41:14.561Z,62.18
2023-01-26T10:44:00.275Z,62.55
2023-01-26T10:46:45.561Z,62.03
2023-01-26T10:49:31.481Z,62.06
2023-01-26T10:52:17.866Z,61.81
2023-01-26T10:55:11.493Z,61.80
2023-01-26T10:57:57.347Z,61.71
2023-01-26T11:00:43.235Z,61.84
2023-01-26T11:03:28.933Z,61.88
2023-01-26T11:06:15.323Z,62.06
2023-01-26T11:09:20.932Z,61.99
2023-01-26T11:12:06.433Z,61.13
2023-01-26T11:15:12.781Z,61.32
2023-01-26T11:17:59.297Z,61.13
2023-01-26T11:20:48.023Z,61.06
2023-01-26T11:23:45.898Z,60.69
2023-01-26T11:26:51.337Z,60.94
2023-01-26T11:29:45.902Z,61.37
2023-01-26T11:32:43.900Z,61.35
2023-01-26T11:35:29.674Z,61.57
2023-01-26T11:38:31.156Z,61.40
2023-01-26T11:41:19.607Z,61.45
2023-01-26T11:44:17.513Z,61.34
2023-01-26T11:47:15.710Z,61.31
2023-01-26T11:50:01.255Z,61.30
2023-01-26T11:53:05.800Z,61.04
2023-01-26T11:55:54.595Z,61.07
2023-01-26T11:58:55.103Z,61.35
2023-01-26T12:01:42.219Z,60.66
2023-01-26T12:04:33.226Z,61.10
2023-01-26T12:07:31.512Z,61.02
2023-01-26T12:10:46.673Z,61.25
2023-01-26T12:13:36.295Z,60.93
2023-01-26T12:16:25.408Z,61.17
2023-01-26T12:19:19.259Z,61.12
2023-01-26T12:22:16.486Z,61.17
2023-01-26T12:25:25.839Z,60.77
2023-01-26T12:28:13.531Z,60.15
2023-01-26T12:31:04.794Z,60.44
2023-01-26T12:33:54.154Z,60.69
2023-01-26T12:37:03.531Z,60.44
2023-01-26T12:40:19.072Z,60.52
2023-01-26T12:43:20.595Z,60.84
2023-01-26T12:46:06.255Z,60.43
2023-01-26T12:48:55.863Z,60.06
2023-01-26T12:51:42.438Z,60.19
2023-01-26T12:54:58.436Z,60.56
2023-01-26T12:57:49.813Z,61.01
2023-01-26T13:00:36.846Z,60.89
2023-01-26T13:03:28.192Z,60.39
2023-01-26T13:06:13.679Z,60.37
2023-01-26T13:09:00.616Z,60.61
2023-01-26T13:11:52.627Z,60.54
2023-01-26T13:14:51.213Z,60.72
2023-01-26T13:17:59.264Z,60.89
2023-01-26T13:20:44.828Z,60.96
2023-01-26T13:23:40.819Z,60.70
2023-01-26T13:26:32.408Z,60.61
2023-01-26T13:29:27.561Z,60.93
2023-01-26T13:32:13.213Z,60.91
2023-01-26T13:34:59.967Z,60.68
2023-01-26T13:37:58.121Z,60.24
2023-01-26T13:40:50.003Z,60.71
2023-01-26T13:43:40.832Z,60.57
2023-01-26T13:46:29.322Z,60.43
2023-01-26T13:49:49.504Z,60.48
2023-01-26T13:52:35.129Z,60.07
2023-01-26T13:55:26.893Z,60.85
2023-01-26T13:58:14.078Z,60.08
2023-01-26T14:01:00.928Z,60.54
2023-01-26T14:03:47.744Z,60.13
2023-01-26T14:06:33.922Z,59.70
2023-01-26T14:09:20.052Z,60.13
2023-01-26T14:12:05.863Z,60.67
2023-01-26T14:14:52.007Z,60.42
2023-01-26T14:17:46.543Z,60.22
2023-01-26T14:20:33.648Z,60.19
2023-01-26T14:23:19.438Z,60.20
2023-01-26T14:26:34.540Z,60.44
2023-01-26T14:29:23.600Z,60.58
2023-01-26T14:32:13.950Z,60.25
2023-01-26T14:35:00.698Z,60.27
2023-01-26T14:37:46.549Z,58.95
2023-01-26T14:40:31.926Z,58.08
2023-01-26T14:43:17.699Z,57.84
2023-01-26T14:46:04.606Z,58.51
2023-01-26T14:48:56.373Z,58.69
2023-01-26T14:51:43.653Z,58.02
2023-01-26T14:54:32.828Z,59.59
2023-01-26T14:57:19.318Z,57.72
2023-01-26T15:00:09.999Z,58.01
2023-01-26T15:02:56.236Z,58.60
2023-01-26T15:05:42.334Z,59.12
2023-01-26T15:08:28.201Z,58.62
2023-01-26T15:11:32.381Z,58.97
2023-01-26T15:14:24.176Z,58.80
2023-01-26T15:17:32.905Z,60.03
2023-01-26T15:20:19.182Z,59.74
2023-01-26T15:23:27.474Z,59.58
2023-01-26T15:26:14.679Z,60.33
2023-01-26T15:29:18.135Z,60.09
2023-01-26T15:32:04.200Z,59.72
2023-01-26T15:35:03.419Z,60.54
2023-01-26T15:37:49.067Z,59.80
2023-01-26T15:40:39.773Z,58.92
2023-01-26T15:43:25.484Z,59.75
2023-01-26T15:46:11.015Z,58.85
2023-01-26T15:49:02.380Z,59.53
2023-01-26T15:51:48.189Z,59.59
2023-01-26T15:54:33.654Z,59.43
2023-01-26T15:57:19.675Z,59.33
2023-01-26T16:00:07.701Z,58.67
2023-01-26T16:02:53.368Z,59.56
2023-01-26T16:05:38.860Z,58.93
2023-01-26T16:08:24.663Z,58.69
2023-01-26T16:11:11.990Z,58.84
2023-01-26T16:14:03.693Z,59.06
2023-01-26T16:16:49.949Z,58.56
2023-01-26T16:19:35.936Z,59.25
2023-01-26T16:22:21.591Z,59.42
2023-01-26T16:25:22.516Z,59.80
2023-01-26T16:28:08.263Z,59.68
2023-01-26T16:30:54.116Z,60.33
2023-01-26T16:33:44.037Z,60.04
2023-01-26T16:36:30.621Z,59.70
2023-01-26T16:39:16.719Z,60.18
2023-01-26T16:42:05.784Z,59.63
2023-01-26T16:44:51.700Z,59.33
2023-01-26T16:47:38.591Z,59.78
2023-01-26T16:50:24.916Z,59.97
2023-01-26T16:53:25.198Z,60.07
2023-01-26T16:56:11.411Z,59.74
2023-01-26T16:58:57.361Z,59.74
2023-01-26T17:01:42.908Z,59.22
2023-01-26T17:04:28.903Z,59.29
2023-01-26T17:07:14.359Z,59.69
2023-01-26T17:10:00.071Z,58.98
2023-01-26T17:12:45.480Z,59.28
2023-01-26T17:15:31.419Z,59.01
2023-01-26T17:18:17.247Z,58.98
2023-01-26T17:21:03.343Z,59.49
2023-01-26T17:23:49.839Z,59.77
2023-01-26T17:26:35.568Z,59.40
2023-01-26T17:29:21.229Z,59.54
2023-01-26T17:32:06.855Z,60.13
2023-01-26T17:34:52.837Z,59.95
2023-01-26T17:37:39.565Z,59.60
2023-01-26T17:40:26.740Z,59.74
2023-01-26T17:43:12.236Z,59.80
2023-01-26T17:46:01.449Z,60.14
2023-01-26T17:48:47.873Z,59.90
2023-01-26T17:51:33.802Z,59.81
2023-01-26T17:54:20.169Z,60.00
2023-01-26T17:57:06.492Z,59.17
2023-01-26T17:59:51.887Z,59.48
2023-01-26T18:02:37.758Z,59.08
2023-01-26T18:05:23.419Z,59.85
2023-01-26T18:08:09.149Z,59.54
2023-01-26T18:10:59.101Z,59.02
2023-01-26T18:13:44.697Z,59.59
2023-01-26T18:16:30.315Z,59.57
2023-01-26T18:19:16.385Z,59.94
2023-01-26T18:22:02.303Z,59.50
2023-01-26T18:24:48.100Z,58.76
2023-01-26T18:27:33.602Z,59.32
2023-01-26T18:30:19.533Z,59.06
2023-01-26T18:33:04.962Z,58.78
2023-01-26T18:35:50.607Z,58.65
2023-01-26T18:38:36.215Z,58.53
2023-01-26T18:41:22.564Z,59.28
2023-01-26T18:44:08.400Z,58.98
2023-01-26T18:46:53.990Z,59.43
2023-01-26T18:49:39.777Z,59.17
2023-01-26T18:52:25.461Z,58.90
2023-01-26T18:55:11.829Z,58.30
2023-01-26T18:57:57.461Z,58.92
2023-01-26T19:00:43.469Z,59.50
2023-01-26T19:03:29.658Z,59.58
2023-01-26T19:06:19.844Z,59.45
2023-01-26T19:09:06.835Z,59.34
2023-01-26T19:11:52.355Z,59.78
2023-01-26T19:14:37.923Z,59.06
2023-01-26T19:17:23.392Z,59.36
2023-01-26T19:20:09.740Z,59.28
2023-01-26T19:22:56.611Z,59.50
2023-01-26T19:25:42.417Z,59.44
2023-01-26T19:28:27.934Z,59.88
2023-01-26T19:31:13.867Z,60.32
2023-01-26T19:34:00.366Z,59.48
2023-01-26T19:36:47.113Z,59.61
2023-01-26T19:39:32.628Z,58.90
2023-01-26T19:42:18.689Z,59.69
2023-01-26T19:45:04.191Z,59.33
2023-01-26T19:47:50.345Z,59.93
2023-01-26T19:50:35.838Z,59.91
2023-01-26T19:53:21.709Z,59.86
2023-01-26T19:56:07.201Z,58.96
2023-01-26T19:58:56.907Z,60.03
2023-01-26T20:01:42.871Z,59.30
2023-01-26T20:04:28.429Z,59.62
2023-01-26T20:07:13.784Z,59.84
2023-01-26T20:09:59.399Z,59.42
2023-01-26T20:12:45.414Z,58.65
2023-01-26T20:15:30.896Z,59.43
2023-01-26T20:18:16.745Z,59.37
2023-01-26T20:21:02.686Z,60.05
2023-01-26T20:23:54.287Z,59.48
2023-01-26T20:26:43.474Z,59.53
2023-01-26T20:29:29.387Z,60.02
2023-01-26T20:32:14.832Z,59.19
2023-01-26T20:35:00.931Z,59.52
2023-01-26T20:37:46.563Z,59.24
2023-01-26T20:40:32.216Z,59.83
2023-01-26T20:43:17.765Z,59.20
2023-01-26T20:46:10.638Z,59.48
2023-01-26T20:48:56.416Z,59.55
2023-01-26T20:51:42.806Z,60.11
2023-01-26T20:54:28.651Z,59.83
2023-01-26T20:57:14.311Z,59.15
2023-01-26T21:00:02.097Z,59.23
2023-01-26T21:02:48.681Z,59.17
2023-01-26T21:05:34.275Z,58.60
2023-01-26T21:08:20.178Z,59.73
2023-01-26T21:11:08.147Z,59.96
2023-01-26T21:13:58.196Z,59.73
2023-01-26T21:16:44.253Z,59.22
2023-01-26T21:19:30.094Z,59.64
2023-01-26T21:22:15.830Z,59.54
2023-01-26T21:25:01.517Z,59.35
2023-01-26T21:27:47.031Z,59.36
2023-01-26T21:30:32.600Z,59.84
2023-01-26T21:33:18.528Z,60.20
2023-01-26T21:36:05.937Z,60.57
2023-01-26T21:38:53.366Z,59.76
2023-01-26T21:45:53.058Z,59.98
2023-01-26T21:48:39.405Z,59.60
2023-01-26T21:51:44.359Z,59.83
2023-01-26T21:54:30.196Z,59.97
2023-01-26T21:57:34.520Z,59.39
2023-01-26T22:00:20.758Z,59.83
2023-01-26T22:03:06.294Z,59.05
2023-01-26T22:05:53.401Z,59.21
2023-01-26T22:08:38.760Z,60.06
2023-01-26T22:11:24.657Z,58.67
2023-01-26T22:14:18.391Z,59.49
2023-01-26T22:17:04.533Z,59.64
2023-01-26T22:19:50.283Z,59.35
2023-01-26T22:22:35.576Z,58.78
2023-01-26T22:25:21.268Z,59.23
2023-01-26T22:28:06.830Z,59.30
2023-01-26T22:30:52.388Z,60.03
2023-01-26T22:33:37.804Z,59.88
2023-01-26T22:36:23.848Z,59.81
2023-01-26T22:39:09.799Z,59.88
2023-01-26T22:41:56.157Z,58.49
2023-01-26T22:44:43.449Z,59.75
2023-01-26T22:47:29.302Z,60.01
2023-01-26T22:50:15.205Z,59.16
2023-01-26T22:53:00.777Z,58.64
2023-01-26T22:55:50.286Z,58.89
2023-01-26T22:58:47.665Z,59.59
2023-01-26T23:01:37.205Z,59.26
2023-01-26T23:04:24.225Z,59.44
2023-01-26T23:07:09.546Z,59.44
2023-01-26T23:09:55.109Z,60.10
2023-01-26T23:12:40.773Z,59.66
2023-01-26T23:15:27.141Z,60.17
2023-01-26T23:18:12.657Z,60.08
2023-01-26T23:20:58.703Z,59.97
2023-01-26T23:23:44.107Z,59.47
2023-01-26T23:26:30.102Z,60.20
2023-01-26T23:29:15.658Z,60.22
2023-01-26T23:32:01.544Z,59.76
2023-01-26T23:34:47.232Z,60.13
2023-01-26T23:37:33.047Z,59.94
2023-01-26T23:40:18.893Z,59.50
2023-01-26T23:43:16.192Z,59.41
2023-01-26T23:46:03.419Z,59.61
2023-01-26T23:48:48.880Z,59.32
2023-01-26T23:51:34.501Z,60.23
2023-01-26T23:54:20.349Z,60.01
2023-01-26T23:57:06.019Z,59.67
2023-01-26T23:59:51.555Z,59.85
